sensor_id;sensor_type;location;lat;lon;timestamp;P1;durP1;ratioP1;P2;durP2;ratioP2
20381;SDS011;10350;51.280;12.400;2022-12-18T00:00:56;32.63;;;13.85;;
20381;SDS011;10350;51.280;12.400;2022-12-18T00:03:22;32.80;;;15.07;;
20381;SDS011;10350;51.280;12.400;2022-12-18T00:05:51;32.40;;;14.02;;
20381;SDS011;10350;51.280;12.400;2022-12-18T00:08:18;33.38;;;13.98;;
20381;SDS011;10350;51.280;12.400;2022-12-18T00:10:44;31.67;;;13.45;;
20381;SDS011;10350;51.280;12.400;2022-12-18T00:13:11;34.38;;;13.50;;
20381;SDS011;10350;51.280;12.400;2022-12-18T00:15:37;36.80;;;14.80;;
20381;SDS011;10350;51.280;12.400;2022-12-18T00:18:04;39.65;;;14.55;;
20381;SDS011;10350;51.280;12.400;2022-12-18T00:20:30;43.42;;;15.98;;
20381;SDS011;10350;51.280;12.400;2022-12-18T00:22:56;40.22;;;14.90;;
20381;SDS011;10350;51.280;12.400;2022-12-18T00:25:22;40.63;;;15.18;;
20381;SDS011;10350;51.280;12.400;2022-12-18T00:27:48;41.05;;;17.27;;
20381;SDS011;10350;51.280;12.400;2022-12-18T00:30:14;40.85;;;16.73;;
20381;SDS011;10350;51.280;12.400;2022-12-18T00:32:40;39.10;;;15.77;;
20381;SDS011;10350;51.280;12.400;2022-12-18T00:35:06;39.72;;;15.98;;
20381;SDS011;10350;51.280;12.400;2022-12-18T00:37:35;40.72;;;16.13;;
20381;SDS011;10350;51.280;12.400;2022-12-18T00:40:02;39.90;;;15.68;;
20381;SDS011;10350;51.280;12.400;2022-12-18T00:42:28;41.65;;;16.75;;
20381;SDS011;10350;51.280;12.400;2022-12-18T00:45:12;35.80;;;14.75;;
20381;SDS011;10350;51.280;12.400;2022-12-18T00:47:39;36.70;;;14.43;;
20381;SDS011;10350;51.280;12.400;2022-12-18T00:50:05;33.15;;;14.57;;
20381;SDS011;10350;51.280;12.400;2022-12-18T00:52:31;31.48;;;14.82;;
20381;SDS011;10350;51.280;12.400;2022-12-18T00:54:57;33.50;;;14.23;;
20381;SDS011;10350;51.280;12.400;2022-12-18T00:57:22;32.70;;;14.15;;
20381;SDS011;10350;51.280;12.400;2022-12-18T00:59:48;33.17;;;13.05;;
20381;SDS011;10350;51.280;12.400;2022-12-18T01:02:14;34.60;;;14.35;;
20381;SDS011;10350;51.280;12.400;2022-12-18T01:04:40;32.47;;;13.88;;
20381;SDS011;10350;51.280;12.400;2022-12-18T01:07:06;31.38;;;14.07;;
20381;SDS011;10350;51.280;12.400;2022-12-18T01:09:32;33.30;;;13.75;;
20381;SDS011;10350;51.280;12.400;2022-12-18T01:11:59;31.50;;;13.85;;
20381;SDS011;10350;51.280;12.400;2022-12-18T01:14:25;32.97;;;13.57;;
20381;SDS011;10350;51.280;12.400;2022-12-18T01:16:51;33.30;;;14.13;;
20381;SDS011;10350;51.280;12.400;2022-12-18T01:19:17;32.97;;;13.38;;
20381;SDS011;10350;51.280;12.400;2022-12-18T01:21:43;32.03;;;12.40;;
20381;SDS011;10350;51.280;12.400;2022-12-18T01:24:09;29.85;;;11.95;;
20381;SDS011;10350;51.280;12.400;2022-12-18T01:26:35;27.42;;;13.55;;
20381;SDS011;10350;51.280;12.400;2022-12-18T01:29:01;31.95;;;13.50;;
20381;SDS011;10350;51.280;12.400;2022-12-18T01:31:28;28.35;;;13.80;;
20381;SDS011;10350;51.280;12.400;2022-12-18T01:33:55;33.50;;;12.77;;
20381;SDS011;10350;51.280;12.400;2022-12-18T01:36:22;28.15;;;13.85;;
20381;SDS011;10350;51.280;12.400;2022-12-18T01:38:49;36.63;;;13.23;;
20381;SDS011;10350;51.280;12.400;2022-12-18T01:41:16;37.35;;;14.80;;
20381;SDS011;10350;51.280;12.400;2022-12-18T01:43:47;22.23;;;11.18;;
20381;SDS011;10350;51.280;12.400;2022-12-18T01:46:13;34.78;;;11.90;;
20381;SDS011;10350;51.280;12.400;2022-12-18T01:48:40;34.95;;;14.27;;
20381;SDS011;10350;51.280;12.400;2022-12-18T01:51:06;32.50;;;13.52;;
20381;SDS011;10350;51.280;12.400;2022-12-18T01:53:34;29.63;;;13.48;;
20381;SDS011;10350;51.280;12.400;2022-12-18T01:56:01;23.48;;;10.48;;
20381;SDS011;10350;51.280;12.400;2022-12-18T01:59:12;30.52;;;12.90;;
20381;SDS011;10350;51.280;12.400;2022-12-18T02:01:13;37.35;;;14.40;;
20381;SDS011;10350;51.280;12.400;2022-12-18T02:03:42;31.00;;;13.77;;
20381;SDS011;10350;51.280;12.400;2022-12-18T02:06:11;30.45;;;14.00;;
20381;SDS011;10350;51.280;12.400;2022-12-18T02:08:43;31.77;;;14.45;;
20381;SDS011;10350;51.280;12.400;2022-12-18T02:14:02;29.20;;;11.93;;
20381;SDS011;10350;51.280;12.400;2022-12-18T02:16:39;38.35;;;14.02;;
20381;SDS011;10350;51.280;12.400;2022-12-18T02:19:15;31.65;;;14.43;;
20381;SDS011;10350;51.280;12.400;2022-12-18T02:25:18;32.83;;;13.23;;
20381;SDS011;10350;51.280;12.400;2022-12-18T02:27:14;37.28;;;14.07;;
20381;SDS011;10350;51.280;12.400;2022-12-18T02:29:42;33.30;;;14.40;;
20381;SDS011;10350;51.280;12.400;2022-12-18T02:32:11;38.78;;;14.63;;
20381;SDS011;10350;51.280;12.400;2022-12-18T02:34:39;31.33;;;14.27;;
20381;SDS011;10350;51.280;12.400;2022-12-18T02:37:06;33.78;;;14.55;;
20381;SDS011;10350;51.280;12.400;2022-12-18T02:39:33;32.60;;;13.82;;
20381;SDS011;10350;51.280;12.400;2022-12-18T02:41:59;35.60;;;15.18;;
20381;SDS011;10350;51.280;12.400;2022-12-18T02:44:32;34.22;;;14.30;;
20381;SDS011;10350;51.280;12.400;2022-12-18T02:46:58;35.17;;;14.52;;
20381;SDS011;10350;51.280;12.400;2022-12-18T02:52:13;25.63;;;13.32;;
20381;SDS011;10350;51.280;12.400;2022-12-18T03:00:08;29.73;;;12.57;;
20381;SDS011;10350;51.280;12.400;2022-12-18T03:02:39;26.35;;;12.95;;
20381;SDS011;10350;51.280;12.400;2022-12-18T03:05:25;28.38;;;13.55;;
20381;SDS011;10350;51.280;12.400;2022-12-18T03:07:56;32.40;;;12.95;;
20381;SDS011;10350;51.280;12.400;2022-12-18T03:10:27;31.50;;;12.88;;
20381;SDS011;10350;51.280;12.400;2022-12-18T03:12:56;27.50;;;12.23;;
20381;SDS011;10350;51.280;12.400;2022-12-18T03:15:28;30.80;;;13.75;;
20381;SDS011;10350;51.280;12.400;2022-12-18T03:17:57;27.30;;;12.40;;
20381;SDS011;10350;51.280;12.400;2022-12-18T03:20:25;25.27;;;11.38;;
20381;SDS011;10350;51.280;12.400;2022-12-18T03:22:53;27.50;;;11.60;;
20381;SDS011;10350;51.280;12.400;2022-12-18T03:25:21;32.53;;;12.00;;
20381;SDS011;10350;51.280;12.400;2022-12-18T03:27:49;25.05;;;11.95;;
20381;SDS011;10350;51.280;12.400;2022-12-18T03:30:15;20.47;;;10.93;;
20381;SDS011;10350;51.280;12.400;2022-12-18T03:32:46;30.33;;;12.45;;
20381;SDS011;10350;51.280;12.400;2022-12-18T03:35:14;27.00;;;12.05;;
20381;SDS011;10350;51.280;12.400;2022-12-18T03:37:42;28.83;;;11.75;;
20381;SDS011;10350;51.280;12.400;2022-12-18T03:40:08;32.03;;;12.27;;
20381;SDS011;10350;51.280;12.400;2022-12-18T03:42:45;24.90;;;11.48;;
20381;SDS011;10350;51.280;12.400;2022-12-18T03:45:20;27.30;;;11.68;;
20381;SDS011;10350;51.280;12.400;2022-12-18T03:47:52;29.77;;;11.02;;
20381;SDS011;10350;51.280;12.400;2022-12-18T03:50:21;30.05;;;11.98;;
20381;SDS011;10350;51.280;12.400;2022-12-18T03:55:13;22.95;;;11.43;;
20381;SDS011;10350;51.280;12.400;2022-12-18T03:57:39;20.02;;;10.55;;
20381;SDS011;10350;51.280;12.400;2022-12-18T04:00:08;29.15;;;11.30;;
20381;SDS011;10350;51.280;12.400;2022-12-18T04:02:35;22.30;;;9.52;;
20381;SDS011;10350;51.280;12.400;2022-12-18T04:05:04;25.45;;;11.07;;
20381;SDS011;10350;51.280;12.400;2022-12-18T04:07:30;19.00;;;9.20;;
20381;SDS011;10350;51.280;12.400;2022-12-18T04:09:56;21.48;;;9.88;;
20381;SDS011;10350;51.280;12.400;2022-12-18T04:12:24;21.67;;;10.55;;
20381;SDS011;10350;51.280;12.400;2022-12-18T04:14:53;20.50;;;10.15;;
20381;SDS011;10350;51.280;12.400;2022-12-18T04:17:20;22.00;;;10.20;;
20381;SDS011;10350;51.280;12.400;2022-12-18T04:19:46;23.80;;;10.18;;
20381;SDS011;10350;51.280;12.400;2022-12-18T04:22:12;23.55;;;9.48;;
20381;SDS011;10350;51.280;12.400;2022-12-18T04:24:38;20.05;;;9.85;;
20381;SDS011;10350;51.280;12.400;2022-12-18T04:27:04;21.65;;;8.88;;
20381;SDS011;10350;51.280;12.400;2022-12-18T04:29:30;21.33;;;9.35;;
20381;SDS011;10350;51.280;12.400;2022-12-18T04:31:56;21.92;;;8.70;;
20381;SDS011;10350;51.280;12.400;2022-12-18T04:34:22;19.15;;;9.75;;
20381;SDS011;10350;51.280;12.400;2022-12-18T04:36:48;20.83;;;8.95;;
20381;SDS011;10350;51.280;12.400;2022-12-18T04:39:14;22.27;;;9.52;;
20381;SDS011;10350;51.280;12.400;2022-12-18T04:41:40;20.88;;;9.43;;
20381;SDS011;10350;51.280;12.400;2022-12-18T04:44:06;22.60;;;9.02;;
20381;SDS011;10350;51.280;12.400;2022-12-18T04:46:32;23.63;;;8.95;;
20381;SDS011;10350;51.280;12.400;2022-12-18T04:48:58;21.05;;;9.57;;
20381;SDS011;10350;51.280;12.400;2022-12-18T04:51:24;24.73;;;9.15;;
20381;SDS011;10350;51.280;12.400;2022-12-18T04:53:50;17.38;;;8.88;;
20381;SDS011;10350;51.280;12.400;2022-12-18T04:56:16;21.35;;;9.48;;
20381;SDS011;10350;51.280;12.400;2022-12-18T04:58:43;17.23;;;9.20;;
20381;SDS011;10350;51.280;12.400;2022-12-18T05:01:10;21.25;;;9.95;;
20381;SDS011;10350;51.280;12.400;2022-12-18T05:03:36;20.83;;;8.85;;
20381;SDS011;10350;51.280;12.400;2022-12-18T05:06:03;19.25;;;8.57;;
20381;SDS011;10350;51.280;12.400;2022-12-18T05:08:29;17.13;;;8.70;;
20381;SDS011;10350;51.280;12.400;2022-12-18T05:11:05;19.92;;;7.97;;
20381;SDS011;10350;51.280;12.400;2022-12-18T05:13:32;21.70;;;7.97;;
20381;SDS011;10350;51.280;12.400;2022-12-18T05:15:58;20.67;;;7.68;;
20381;SDS011;10350;51.280;12.400;2022-12-18T05:18:25;22.05;;;8.48;;
20381;SDS011;10350;51.280;12.400;2022-12-18T05:20:51;18.75;;;8.25;;
20381;SDS011;10350;51.280;12.400;2022-12-18T05:23:17;16.90;;;7.53;;
20381;SDS011;10350;51.280;12.400;2022-12-18T05:25:53;19.25;;;7.97;;
20381;SDS011;10350;51.280;12.400;2022-12-18T05:28:20;17.85;;;7.80;;
20381;SDS011;10350;51.280;12.400;2022-12-18T05:30:52;21.02;;;8.93;;
20381;SDS011;10350;51.280;12.400;2022-12-18T05:33:19;18.00;;;8.57;;
20381;SDS011;10350;51.280;12.400;2022-12-18T05:35:49;18.67;;;9.20;;
20381;SDS011;10350;51.280;12.400;2022-12-18T05:38:16;17.77;;;8.55;;
20381;SDS011;10350;51.280;12.400;2022-12-18T05:40:42;17.55;;;9.20;;
20381;SDS011;10350;51.280;12.400;2022-12-18T05:43:09;17.73;;;8.88;;
20381;SDS011;10350;51.280;12.400;2022-12-18T05:45:36;16.52;;;8.25;;
20381;SDS011;10350;51.280;12.400;2022-12-18T05:50:28;18.65;;;8.27;;
20381;SDS011;10350;51.280;12.400;2022-12-18T05:52:54;20.27;;;8.32;;
20381;SDS011;10350;51.280;12.400;2022-12-18T05:55:20;17.73;;;9.40;;
20381;SDS011;10350;51.280;12.400;2022-12-18T05:57:46;18.02;;;8.52;;
20381;SDS011;10350;51.280;12.400;2022-12-18T06:00:12;22.90;;;8.25;;
20381;SDS011;10350;51.280;12.400;2022-12-18T06:02:38;17.73;;;8.25;;
20381;SDS011;10350;51.280;12.400;2022-12-18T06:05:04;19.30;;;8.55;;
20381;SDS011;10350;51.280;12.400;2022-12-18T06:07:30;21.42;;;9.02;;
20381;SDS011;10350;51.280;12.400;2022-12-18T06:09:56;24.45;;;9.05;;
20381;SDS011;10350;51.280;12.400;2022-12-18T06:12:22;18.27;;;9.05;;
20381;SDS011;10350;51.280;12.400;2022-12-18T06:14:48;19.73;;;9.32;;
20381;SDS011;10350;51.280;12.400;2022-12-18T06:17:14;17.13;;;8.63;;
20381;SDS011;10350;51.280;12.400;2022-12-18T06:19:40;22.77;;;9.48;;
20381;SDS011;10350;51.280;12.400;2022-12-18T06:22:06;18.48;;;8.98;;
20381;SDS011;10350;51.280;12.400;2022-12-18T06:24:32;20.58;;;8.95;;
20381;SDS011;10350;51.280;12.400;2022-12-18T06:26:58;17.27;;;8.50;;
20381;SDS011;10350;51.280;12.400;2022-12-18T06:29:24;22.10;;;9.85;;
20381;SDS011;10350;51.280;12.400;2022-12-18T06:31:50;19.25;;;8.20;;
20381;SDS011;10350;51.280;12.400;2022-12-18T06:34:16;17.42;;;9.57;;
20381;SDS011;10350;51.280;12.400;2022-12-18T06:36:42;16.67;;;8.75;;
20381;SDS011;10350;51.280;12.400;2022-12-18T06:39:08;16.10;;;8.63;;
20381;SDS011;10350;51.280;12.400;2022-12-18T06:41:34;17.98;;;8.85;;
20381;SDS011;10350;51.280;12.400;2022-12-18T06:44:00;20.50;;;9.43;;
20381;SDS011;10350;51.280;12.400;2022-12-18T06:46:26;18.08;;;8.73;;
20381;SDS011;10350;51.280;12.400;2022-12-18T06:48:52;17.08;;;9.13;;
20381;SDS011;10350;51.280;12.400;2022-12-18T06:51:18;17.23;;;8.35;;
20381;SDS011;10350;51.280;12.400;2022-12-18T06:53:44;17.40;;;8.55;;
20381;SDS011;10350;51.280;12.400;2022-12-18T06:56:10;15.40;;;8.27;;
20381;SDS011;10350;51.280;12.400;2022-12-18T06:58:37;20.08;;;8.20;;
20381;SDS011;10350;51.280;12.400;2022-12-18T07:01:04;26.88;;;8.07;;
20381;SDS011;10350;51.280;12.400;2022-12-18T07:03:30;12.55;;;6.00;;
20381;SDS011;10350;51.280;12.400;2022-12-18T07:05:56;15.05;;;7.82;;
20381;SDS011;10350;51.280;12.400;2022-12-18T07:08:22;14.52;;;7.40;;
20381;SDS011;10350;51.280;12.400;2022-12-18T07:10:48;20.60;;;8.65;;
20381;SDS011;10350;51.280;12.400;2022-12-18T07:13:15;14.30;;;7.15;;
20381;SDS011;10350;51.280;12.400;2022-12-18T07:15:41;15.32;;;7.07;;
20381;SDS011;10350;51.280;12.400;2022-12-18T07:18:07;16.98;;;7.88;;
20381;SDS011;10350;51.280;12.400;2022-12-18T07:20:33;16.63;;;7.60;;
20381;SDS011;10350;51.280;12.400;2022-12-18T07:23:01;14.57;;;7.80;;
20381;SDS011;10350;51.280;12.400;2022-12-18T07:27:52;18.13;;;7.22;;
20381;SDS011;10350;51.280;12.400;2022-12-18T07:30:18;14.75;;;7.65;;
20381;SDS011;10350;51.280;12.400;2022-12-18T07:32:44;19.73;;;7.35;;
20381;SDS011;10350;51.280;12.400;2022-12-18T07:35:10;12.90;;;7.07;;
20381;SDS011;10350;51.280;12.400;2022-12-18T07:37:36;14.65;;;7.53;;
20381;SDS011;10350;51.280;12.400;2022-12-18T07:40:02;13.93;;;6.43;;
20381;SDS011;10350;51.280;12.400;2022-12-18T07:42:28;17.63;;;8.13;;
20381;SDS011;10350;51.280;12.400;2022-12-18T07:44:57;17.13;;;8.75;;
20381;SDS011;10350;51.280;12.400;2022-12-18T07:47:24;17.33;;;8.05;;
20381;SDS011;10350;51.280;12.400;2022-12-18T07:49:50;19.73;;;9.65;;
20381;SDS011;10350;51.280;12.400;2022-12-18T07:52:16;15.75;;;7.50;;
20381;SDS011;10350;51.280;12.400;2022-12-18T07:54:42;21.17;;;7.95;;
20381;SDS011;10350;51.280;12.400;2022-12-18T07:57:08;20.48;;;7.13;;
20381;SDS011;10350;51.280;12.400;2022-12-18T07:59:34;14.13;;;6.70;;
20381;SDS011;10350;51.280;12.400;2022-12-18T08:02:00;16.38;;;6.68;;
20381;SDS011;10350;51.280;12.400;2022-12-18T08:04:25;12.90;;;6.05;;
20381;SDS011;10350;51.280;12.400;2022-12-18T08:06:51;17.58;;;7.50;;
20381;SDS011;10350;51.280;12.400;2022-12-18T08:09:17;21.48;;;7.00;;
20381;SDS011;10350;51.280;12.400;2022-12-18T08:11:43;11.15;;;6.05;;
20381;SDS011;10350;51.280;12.400;2022-12-18T08:14:09;14.68;;;7.40;;
20381;SDS011;10350;51.280;12.400;2022-12-18T08:16:36;17.48;;;7.97;;
20381;SDS011;10350;51.280;12.400;2022-12-18T08:19:02;14.82;;;7.78;;
20381;SDS011;10350;51.280;12.400;2022-12-18T08:21:29;10.70;;;6.70;;
20381;SDS011;10350;51.280;12.400;2022-12-18T08:23:56;16.35;;;7.78;;
20381;SDS011;10350;51.280;12.400;2022-12-18T08:26:22;17.35;;;7.07;;
20381;SDS011;10350;51.280;12.400;2022-12-18T08:28:49;15.27;;;7.60;;
20381;SDS011;10350;51.280;12.400;2022-12-18T08:31:15;14.52;;;7.15;;
20381;SDS011;10350;51.280;12.400;2022-12-18T08:33:41;11.55;;;7.25;;
20381;SDS011;10350;51.280;12.400;2022-12-18T08:36:08;15.32;;;7.55;;
20381;SDS011;10350;51.280;12.400;2022-12-18T08:38:34;14.07;;;7.00;;
20381;SDS011;10350;51.280;12.400;2022-12-18T08:41:00;13.85;;;7.03;;
20381;SDS011;10350;51.280;12.400;2022-12-18T08:43:27;19.70;;;7.50;;
20381;SDS011;10350;51.280;12.400;2022-12-18T08:46:11;14.95;;;7.38;;
20381;SDS011;10350;51.280;12.400;2022-12-18T08:48:37;16.23;;;7.25;;
20381;SDS011;10350;51.280;12.400;2022-12-18T08:51:03;12.38;;;6.88;;
20381;SDS011;10350;51.280;12.400;2022-12-18T08:53:29;13.63;;;6.85;;
20381;SDS011;10350;51.280;12.400;2022-12-18T08:55:56;14.88;;;7.18;;
20381;SDS011;10350;51.280;12.400;2022-12-18T08:58:22;12.55;;;6.88;;
20381;SDS011;10350;51.280;12.400;2022-12-18T09:00:48;11.70;;;6.55;;
20381;SDS011;10350;51.280;12.400;2022-12-18T09:03:14;12.98;;;6.85;;
20381;SDS011;10350;51.280;12.400;2022-12-18T09:05:41;11.73;;;6.97;;
20381;SDS011;10350;51.280;12.400;2022-12-18T09:08:06;16.05;;;7.00;;
20381;SDS011;10350;51.280;12.400;2022-12-18T09:10:33;14.38;;;6.75;;
20381;SDS011;10350;51.280;12.400;2022-12-18T09:12:59;15.55;;;7.57;;
20381;SDS011;10350;51.280;12.400;2022-12-18T09:15:25;14.07;;;7.13;;
20381;SDS011;10350;51.280;12.400;2022-12-18T09:17:51;14.77;;;8.38;;
20381;SDS011;10350;51.280;12.400;2022-12-18T09:20:17;12.73;;;7.25;;
20381;SDS011;10350;51.280;12.400;2022-12-18T09:22:43;11.05;;;6.55;;
20381;SDS011;10350;51.280;12.400;2022-12-18T09:25:09;16.38;;;7.43;;
20381;SDS011;10350;51.280;12.400;2022-12-18T09:27:35;17.77;;;8.07;;
20381;SDS011;10350;51.280;12.400;2022-12-18T09:30:01;13.40;;;7.63;;
20381;SDS011;10350;51.280;12.400;2022-12-18T09:32:27;11.93;;;6.95;;
20381;SDS011;10350;51.280;12.400;2022-12-18T09:34:53;14.43;;;6.80;;
20381;SDS011;10350;51.280;12.400;2022-12-18T09:37:19;14.02;;;6.75;;
20381;SDS011;10350;51.280;12.400;2022-12-18T09:39:45;12.30;;;6.20;;
20381;SDS011;10350;51.280;12.400;2022-12-18T09:42:29;11.20;;;6.13;;
20381;SDS011;10350;51.280;12.400;2022-12-18T09:44:55;12.70;;;6.65;;
20381;SDS011;10350;51.280;12.400;2022-12-18T09:47:23;8.85;;;6.07;;
20381;SDS011;10350;51.280;12.400;2022-12-18T09:49:50;9.05;;;4.95;;
20381;SDS011;10350;51.280;12.400;2022-12-18T09:52:28;9.55;;;6.22;;
20381;SDS011;10350;51.280;12.400;2022-12-18T09:55:38;8.52;;;5.15;;
20381;SDS011;10350;51.280;12.400;2022-12-18T09:57:49;7.20;;;4.60;;
20381;SDS011;10350;51.280;12.400;2022-12-18T10:02:43;10.60;;;6.13;;
20381;SDS011;10350;51.280;12.400;2022-12-18T10:08:02;6.72;;;4.53;;
20381;SDS011;10350;51.280;12.400;2022-12-18T10:10:51;8.50;;;5.22;;
20381;SDS011;10350;51.280;12.400;2022-12-18T10:13:29;6.15;;;4.47;;
20381;SDS011;10350;51.280;12.400;2022-12-18T10:16:08;6.57;;;4.88;;
20381;SDS011;10350;51.280;12.400;2022-12-18T10:21:30;8.25;;;5.03;;
20381;SDS011;10350;51.280;12.400;2022-12-18T10:24:03;7.03;;;4.95;;
20381;SDS011;10350;51.280;12.400;2022-12-18T10:26:33;7.15;;;5.03;;
20381;SDS011;10350;51.280;12.400;2022-12-18T10:29:00;7.50;;;5.35;;
20381;SDS011;10350;51.280;12.400;2022-12-18T10:31:26;10.88;;;6.00;;
20381;SDS011;10350;51.280;12.400;2022-12-18T10:33:55;7.85;;;5.78;;
20381;SDS011;10350;51.280;12.400;2022-12-18T10:36:22;11.43;;;6.10;;
20381;SDS011;10350;51.280;12.400;2022-12-18T10:38:48;9.85;;;6.57;;
20381;SDS011;10350;51.280;12.400;2022-12-18T10:43:44;9.40;;;6.15;;
20381;SDS011;10350;51.280;12.400;2022-12-18T10:48:57;11.40;;;6.95;;
20381;SDS011;10350;51.280;12.400;2022-12-18T10:51:29;11.68;;;7.47;;
20381;SDS011;10350;51.280;12.400;2022-12-18T10:54:15;14.23;;;6.55;;
20381;SDS011;10350;51.280;12.400;2022-12-18T10:56:42;12.98;;;7.28;;
20381;SDS011;10350;51.280;12.400;2022-12-18T10:59:09;12.55;;;7.57;;
20381;SDS011;10350;51.280;12.400;2022-12-18T11:04:13;10.13;;;7.47;;
20381;SDS011;10350;51.280;12.400;2022-12-18T11:06:57;12.00;;;7.43;;
20381;SDS011;10350;51.280;12.400;2022-12-18T11:09:25;12.18;;;7.05;;
20381;SDS011;10350;51.280;12.400;2022-12-18T11:11:52;10.20;;;6.07;;
20381;SDS011;10350;51.280;12.400;2022-12-18T11:14:28;11.10;;;6.20;;
20381;SDS011;10350;51.280;12.400;2022-12-18T11:16:55;12.20;;;6.95;;
20381;SDS011;10350;51.280;12.400;2022-12-18T11:21:47;12.02;;;6.75;;
20381;SDS011;10350;51.280;12.400;2022-12-18T11:24:22;9.00;;;6.57;;
20381;SDS011;10350;51.280;12.400;2022-12-18T11:26:51;15.03;;;6.90;;
20381;SDS011;10350;51.280;12.400;2022-12-18T11:29:18;11.68;;;6.57;;
20381;SDS011;10350;51.280;12.400;2022-12-18T11:31:48;12.25;;;7.10;;
20381;SDS011;10350;51.280;12.400;2022-12-18T11:34:26;24.95;;;7.32;;
20381;SDS011;10350;51.280;12.400;2022-12-18T11:36:53;13.13;;;6.45;;
20381;SDS011;10350;51.280;12.400;2022-12-18T11:39:24;10.13;;;6.45;;
20381;SDS011;10350;51.280;12.400;2022-12-18T11:41:57;11.05;;;7.07;;
20381;SDS011;10350;51.280;12.400;2022-12-18T11:44:45;13.48;;;6.32;;
20381;SDS011;10350;51.280;12.400;2022-12-18T11:47:19;11.35;;;6.13;;
20381;SDS011;10350;51.280;12.400;2022-12-18T11:49:47;12.35;;;6.60;;
20381;SDS011;10350;51.280;12.400;2022-12-18T11:54:46;12.88;;;6.60;;
20381;SDS011;10350;51.280;12.400;2022-12-18T11:57:26;10.48;;;6.15;;
20381;SDS011;10350;51.280;12.400;2022-12-18T12:02:42;11.57;;;7.05;;
20381;SDS011;10350;51.280;12.400;2022-12-18T12:08:02;15.75;;;7.13;;
20381;SDS011;10350;51.280;12.400;2022-12-18T12:10:36;12.65;;;6.60;;
20381;SDS011;10350;51.280;12.400;2022-12-18T12:15:38;13.90;;;7.22;;
20381;SDS011;10350;51.280;12.400;2022-12-18T12:20:42;14.65;;;7.55;;
20381;SDS011;10350;51.280;12.400;2022-12-18T12:25:47;9.30;;;6.93;;
20381;SDS011;10350;51.280;12.400;2022-12-18T12:28:18;12.60;;;7.25;;
20381;SDS011;10350;51.280;12.400;2022-12-18T12:33:27;14.25;;;7.32;;
20381;SDS011;10350;51.280;12.400;2022-12-18T12:40:54;14.10;;;7.40;;
20381;SDS011;10350;51.280;12.400;2022-12-18T12:43:31;16.98;;;7.43;;
20381;SDS011;10350;51.280;12.400;2022-12-18T12:45:59;17.58;;;7.00;;
20381;SDS011;10350;51.280;12.400;2022-12-18T12:51:21;12.68;;;6.95;;
20381;SDS011;10350;51.280;12.400;2022-12-18T12:53:48;13.35;;;7.15;;
20381;SDS011;10350;51.280;12.400;2022-12-18T12:56:15;12.18;;;7.00;;
20381;SDS011;10350;51.280;12.400;2022-12-18T12:59:02;15.68;;;7.50;;
20381;SDS011;10350;51.280;12.400;2022-12-18T13:01:39;13.77;;;6.70;;
20381;SDS011;10350;51.280;12.400;2022-12-18T13:04:10;11.65;;;6.53;;
20381;SDS011;10350;51.280;12.400;2022-12-18T13:06:53;13.38;;;7.13;;
20381;SDS011;10350;51.280;12.400;2022-12-18T13:09:22;13.25;;;7.88;;
20381;SDS011;10350;51.280;12.400;2022-12-18T13:11:48;18.08;;;7.40;;
20381;SDS011;10350;51.280;12.400;2022-12-18T13:14:37;14.45;;;7.53;;
20381;SDS011;10350;51.280;12.400;2022-12-18T13:19:52;22.13;;;8.23;;
20381;SDS011;10350;51.280;12.400;2022-12-18T13:22:25;17.15;;;7.93;;
20381;SDS011;10350;51.280;12.400;2022-12-18T13:24:54;20.15;;;7.90;;
20381;SDS011;10350;51.280;12.400;2022-12-18T13:27:45;19.30;;;8.45;;
20381;SDS011;10350;51.280;12.400;2022-12-18T13:35:40;14.27;;;8.02;;
20381;SDS011;10350;51.280;12.400;2022-12-18T13:40:55;20.98;;;8.48;;
20381;SDS011;10350;51.280;12.400;2022-12-18T13:45:48;15.60;;;8.63;;
20381;SDS011;10350;51.280;12.400;2022-12-18T13:48:19;14.23;;;7.55;;
20381;SDS011;10350;51.280;12.400;2022-12-18T13:51:28;15.20;;;8.40;;
20381;SDS011;10350;51.280;12.400;2022-12-18T13:56:00;19.40;;;8.32;;
20381;SDS011;10350;51.280;12.400;2022-12-18T13:58:27;15.05;;;8.00;;
20381;SDS011;10350;51.280;12.400;2022-12-18T14:00:53;18.15;;;9.13;;
20381;SDS011;10350;51.280;12.400;2022-12-18T14:03:23;15.10;;;8.48;;
20381;SDS011;10350;51.280;12.400;2022-12-18T14:06:05;14.93;;;8.30;;
20381;SDS011;10350;51.280;12.400;2022-12-18T14:08:33;15.60;;;7.82;;
20381;SDS011;10350;51.280;12.400;2022-12-18T14:10:59;14.35;;;8.57;;
20381;SDS011;10350;51.280;12.400;2022-12-18T14:13:27;14.13;;;8.35;;
20381;SDS011;10350;51.280;12.400;2022-12-18T14:15:54;17.77;;;8.35;;
20381;SDS011;10350;51.280;12.400;2022-12-18T14:18:36;17.63;;;8.93;;
20381;SDS011;10350;51.280;12.400;2022-12-18T14:21:04;15.15;;;8.48;;
20381;SDS011;10350;51.280;12.400;2022-12-18T14:23:37;17.05;;;9.35;;
20381;SDS011;10350;51.280;12.400;2022-12-18T14:26:19;17.83;;;9.18;;
20381;SDS011;10350;51.280;12.400;2022-12-18T14:28:45;17.02;;;8.68;;
20381;SDS011;10350;51.280;12.400;2022-12-18T14:34:04;21.02;;;9.63;;
20381;SDS011;10350;51.280;12.400;2022-12-18T14:36:30;18.45;;;10.05;;
20381;SDS011;10350;51.280;12.400;2022-12-18T14:38:57;21.52;;;10.55;;
20381;SDS011;10350;51.280;12.400;2022-12-18T14:41:23;21.50;;;10.15;;
20381;SDS011;10350;51.280;12.400;2022-12-18T14:43:50;20.40;;;10.48;;
20381;SDS011;10350;51.280;12.400;2022-12-18T14:46:30;21.38;;;9.88;;
20381;SDS011;10350;51.280;12.400;2022-12-18T14:48:59;20.65;;;10.18;;
20381;SDS011;10350;51.280;12.400;2022-12-18T14:51:26;19.63;;;9.50;;
20381;SDS011;10350;51.280;12.400;2022-12-18T14:53:54;17.13;;;9.02;;
20381;SDS011;10350;51.280;12.400;2022-12-18T15:01:19;21.48;;;9.63;;
20381;SDS011;10350;51.280;12.400;2022-12-18T15:03:46;19.20;;;9.27;;
20381;SDS011;10350;51.280;12.400;2022-12-18T15:06:17;21.20;;;9.60;;
20381;SDS011;10350;51.280;12.400;2022-12-18T15:08:44;20.27;;;10.52;;
20381;SDS011;10350;51.280;12.400;2022-12-18T15:11:24;19.30;;;10.75;;
20381;SDS011;10350;51.280;12.400;2022-12-18T15:13:50;25.80;;;10.43;;
20381;SDS011;10350;51.280;12.400;2022-12-18T15:16:16;23.95;;;11.55;;
20381;SDS011;10350;51.280;12.400;2022-12-18T15:18:43;27.80;;;11.43;;
20381;SDS011;10350;51.280;12.400;2022-12-18T15:21:11;21.27;;;11.13;;
20381;SDS011;10350;51.280;12.400;2022-12-18T15:26:11;25.00;;;11.70;;
20381;SDS011;10350;51.280;12.400;2022-12-18T15:28:55;29.42;;;13.40;;
20381;SDS011;10350;51.280;12.400;2022-12-18T15:31:32;27.80;;;12.20;;
20381;SDS011;10350;51.280;12.400;2022-12-18T15:34:11;32.45;;;13.88;;
20381;SDS011;10350;51.280;12.400;2022-12-18T15:36:38;30.85;;;13.50;;
20381;SDS011;10350;51.280;12.400;2022-12-18T15:39:04;32.75;;;13.25;;
20381;SDS011;10350;51.280;12.400;2022-12-18T15:41:31;28.85;;;12.70;;
20381;SDS011;10350;51.280;12.400;2022-12-18T15:43:58;27.88;;;13.27;;
20381;SDS011;10350;51.280;12.400;2022-12-18T15:46:24;30.17;;;12.13;;
20381;SDS011;10350;51.280;12.400;2022-12-18T15:48:55;35.03;;;11.65;;
20381;SDS011;10350;51.280;12.400;2022-12-18T15:51:28;23.30;;;11.32;;
20381;SDS011;10350;51.280;12.400;2022-12-18T15:53:56;24.30;;;11.40;;
20381;SDS011;10350;51.280;12.400;2022-12-18T15:56:24;29.70;;;12.45;;
20381;SDS011;10350;51.280;12.400;2022-12-18T15:59:10;26.63;;;11.40;;